Time;durP1;ratioP1;P1;durP2;ratioP2;P2;SDS_P1;SDS_P2;PMS_P1;PMS_P2;Temp;Humidity;BMP_temperature;BMP_pressure;BME280_temperature;BME280_humidity;BME280_pressure;Samples;Min_cycle;Max_cycle;Signal;HPM_P1;HPM_P2
2023/07/18 00:00:19;;;;;;;;;;;14.30;99.90;;;;;;5111700;28;19966;-67
2023/07/18 00:02:46;;;;;;;;;;;14.40;99.90;;;;;;5114514;28;19908;-67
2023/07/18 00:05:13;;;;;;;;;;;14.40;99.90;;;;;;5095474;28;19960;-68
2023/07/18 00:07:40;;;;;;;;;;;14.40;99.90;;;;;;5095370;28;19915;-67
2023/07/18 00:10:08;;;;;;;;;;;14.40;99.90;;;;;;5113159;28;19908;-68
2023/07/18 00:12:35;;;;;;;;;;;14.40;99.90;;;;;;5113305;28;20387;-67
2023/07/18 00:15:04;;;;;;;;;;;14.50;99.90;;;;;;5113487;28;19907;-66
2023/07/18 00:17:31;;;;;;;;;;;14.60;99.90;;;;;;5113435;28;19927;-66
2023/07/18 00:19:59;;;;;;;;;;;14.70;99.90;;;;;;5112457;28;19912;-65
2023/07/18 00:22:25;;;;;;;;;;;14.80;99.90;;;;;;5113378;28;20217;-65
2023/07/18 00:24:52;;;;;;;;;;;14.90;99.90;;;;;;5113038;28;19912;-64
2023/07/18 00:27:19;;;;;;;;;;;15.10;99.90;;;;;;5113221;28;20288;-63
2023/07/18 00:29:45;;;;;;;;;;;15.10;99.90;;;;;;5101464;28;19912;-63
2023/07/18 00:32:12;;;;;;;;;;;15.30;99.90;;;;;;5112725;28;20243;-66
2023/07/18 00:34:40;;;;;;;;;;;15.60;99.90;;;;;;5094315;28;19915;-65
2023/07/18 00:37:07;;;;;;;;;;;15.80;99.90;;;;;;5112806;28;19916;-64
2023/07/18 00:39:34;;;;;;;;;;;15.70;99.90;;;;;;5094627;28;19912;-69
2023/07/18 00:42:00;;;;;;;;;;;15.80;99.90;;;;;;5111838;28;19908;-66
2023/07/18 00:44:27;;;;;;;;;;;15.80;99.90;;;;;;5112514;28;19961;-65
2023/07/18 00:46:54;;;;;;;;;;;15.90;99.90;;;;;;5112654;28;19912;-64
2023/07/18 00:49:25;;;;;;;;;;;16.00;99.90;;;;;;5111712;28;20209;-67
2023/07/18 00:51:52;;;;;;;;;;;16.00;99.90;;;;;;5112777;28;19929;-68
2023/07/18 00:54:21;;;;;;;;;;;16.20;99.90;;;;;;5111869;28;19908;-67
2023/07/18 00:56:47;;;;;;;;;;;16.30;99.90;;;;;;5112912;28;20003;-64
2023/07/18 00:59:17;;;;;;;;;;;16.50;99.90;;;;;;5105922;28;19911;-63
2023/07/18 01:01:43;;;;;;;;;;;16.60;99.90;;;;;;5111626;28;20309;-66
2023/07/18 01:04:10;;;;;;;;;;;16.70;99.90;;;;;;5111557;28;20007;-64
2023/07/18 01:06:38;;;;;;;;;;;16.70;99.90;;;;;;5112453;28;19915;-65
2023/07/18 01:09:05;;;;;;;;;;;16.70;99.90;;;;;;5112475;28;19907;-68
2023/07/18 01:11:33;;;;;;;;;;;16.70;99.90;;;;;;5111696;28;19911;-65
2023/07/18 01:13:59;;;;;;;;;;;16.80;99.90;;;;;;5112276;28;19908;-68
2023/07/18 01:16:26;;;;;;;;;;;16.80;99.90;;;;;;5112136;28;19915;-65
2023/07/18 01:18:53;;;;;;;;;;;17.00;99.90;;;;;;5111871;28;19912;-66
2023/07/18 01:21:20;;;;;;;;;;;17.10;99.90;;;;;;5111447;28;19915;-65
2023/07/18 01:23:47;;;;;;;;;;;17.20;99.90;;;;;;5112053;28;19908;-67
2023/07/18 01:26:14;;;;;;;;;;;17.30;99.90;;;;;;5112373;28;20287;-67
2023/07/18 01:28:41;;;;;;;;;;;17.10;99.90;;;;;;5111532;28;20411;-68
2023/07/18 01:31:07;;;;;;;;;;;17.10;99.90;;;;;;5111610;28;19912;-68
2023/07/18 01:33:34;;;;;;;;;;;17.10;99.90;;;;;;5111646;28;19911;-66
2023/07/18 01:36:01;;;;;;;;;;;17.20;99.90;;;;;;5111935;28;20415;-68
2023/07/18 01:38:31;;;;;;;;;;;17.30;99.90;;;;;;5107368;28;19924;-68
2023/07/18 01:40:59;;;;;;;;;;;17.40;99.90;;;;;;5105919;28;19912;-67
2023/07/18 01:43:26;;;;;;;;;;;17.50;99.90;;;;;;5111067;28;19920;-64
2023/07/18 01:45:57;;;;;;;;;;;17.60;99.90;;;;;;5112395;28;19998;-68
2023/07/18 01:48:24;;;;;;;;;;;17.70;99.90;;;;;;5112105;28;19938;-67
2023/07/18 01:50:50;;;;;;;;;;;17.80;99.90;;;;;;5111834;28;20332;-67
2023/07/18 01:53:17;;;;;;;;;;;18.00;99.90;;;;;;5110979;28;19943;-68
2023/07/18 01:55:43;;;;;;;;;;;18.10;99.90;;;;;;5112162;28;19998;-68
2023/07/18 01:58:10;;;;;;;;;;;18.10;99.90;;;;;;5110305;28;20368;-68
2023/07/18 02:00:37;;;;;;;;;;;18.20;99.90;;;;;;5111475;28;20272;-67
2023/07/18 02:03:05;;;;;;;;;;;18.20;99.90;;;;;;5110961;28;19908;-66
2023/07/18 02:05:32;;;;;;;;;;;18.30;99.90;;;;;;5110584;28;19953;-67
2023/07/18 02:07:59;;;;;;;;;;;18.50;99.90;;;;;;5112135;28;20010;-67
2023/07/18 02:10:26;;;;;;;;;;;18.60;99.90;;;;;;5094871;28;19950;-67
2023/07/18 02:12:54;;;;;;;;;;;18.70;99.90;;;;;;5111805;28;19912;-65
2023/07/18 02:15:21;;;;;;;;;;;18.70;99.90;;;;;;5111231;28;20313;-66
2023/07/18 02:17:48;;;;;;;;;;;18.70;99.90;;;;;;5111519;28;19977;-65
2023/07/18 02:20:14;;;;;;;;;;;18.80;99.90;;;;;;5108809;28;19939;-67
2023/07/18 02:22:43;;;;;;;;;;;18.90;99.90;;;;;;5110886;28;19908;-68
2023/07/18 02:25:10;;;;;;;;;;;19.00;99.90;;;;;;5114130;28;19934;-66
2023/07/18 02:27:40;;;;;;;;;;;19.10;99.90;;;;;;5115845;28;19923;-67
2023/07/18 02:30:09;;;;;;;;;;;19.10;99.90;;;;;;5114678;28;19915;-67
2023/07/18 02:32:36;;;;;;;;;;;19.30;99.90;;;;;;5114954;28;20467;-67
2023/07/18 02:35:03;;;;;;;;;;;19.30;99.90;;;;;;5113831;28;20275;-68
2023/07/18 02:37:30;;;;;;;;;;;19.50;99.90;;;;;;5115071;28;19908;-67
2023/07/18 02:39:56;;;;;;;;;;;19.70;99.90;;;;;;5096915;28;19930;-67
2023/07/18 02:42:23;;;;;;;;;;;19.70;99.90;;;;;;5114629;28;19960;-67
2023/07/18 02:44:50;;;;;;;;;;;19.70;99.90;;;;;;5114360;28;20312;-68
2023/07/18 02:47:16;;;;;;;;;;;19.80;99.90;;;;;;5114960;28;20369;-68
2023/07/18 02:49:43;;;;;;;;;;;19.70;99.90;;;;;;5100898;28;19908;-68
2023/07/18 02:52:10;;;;;;;;;;;19.70;99.90;;;;;;5095097;28;19908;-67
2023/07/18 02:54:36;;;;;;;;;;;19.80;99.90;;;;;;5094375;28;19939;-66
2023/07/18 02:57:04;;;;;;;;;;;20.00;99.90;;;;;;5094809;28;19931;-66
2023/07/18 02:59:31;;;;;;;;;;;20.20;99.60;;;;;;5096283;28;20340;-68
2023/07/18 03:01:58;;;;;;;;;;;20.60;99.50;;;;;;5115344;28;19950;-67
2023/07/18 03:04:26;;;;;;;;;;;21.60;97.70;;;;;;5114838;28;19907;-66
2023/07/18 03:06:53;;;;;;;;;;;22.70;96.20;;;;;;5115039;28;19965;-66
2023/07/18 03:09:21;;;;;;;;;;;23.40;94.60;;;;;;5114834;28;19961;-67
2023/07/18 03:11:49;;;;;;;;;;;24.10;93.10;;;;;;5114871;28;19965;-66
2023/07/18 03:14:17;;;;;;;;;;;24.30;92.30;;;;;;5114525;28;19954;-67
2023/07/18 03:16:45;;;;;;;;;;;24.80;91.60;;;;;;5113875;28;19915;-67
2023/07/18 03:19:12;;;;;;;;;;;25.10;90.10;;;;;;5114159;28;19932;-67
2023/07/18 03:21:39;;;;;;;;;;;26.20;88.40;;;;;;5114111;28;19908;-66
2023/07/18 03:24:07;;;;;;;;;;;27.30;84.80;;;;;;5114000;28;19908;-67
2023/07/18 03:26:36;;;;;;;;;;;27.40;80.20;;;;;;5113443;28;19945;-65
2023/07/18 03:29:06;;;;;;;;;;;26.90;79.90;;;;;;5104872;28;19958;-66
2023/07/18 03:31:33;;;;;;;;;;;26.50;79.50;;;;;;5093508;28;19961;-65
2023/07/18 03:34:00;;;;;;;;;;;26.10;80.30;;;;;;5093314;28;19912;-67
2023/07/18 03:36:27;;;;;;;;;;;25.80;81.50;;;;;;5102712;28;19912;-64
2023/07/18 03:38:54;;;;;;;;;;;26.10;82.60;;;;;;5113755;28;20376;-67
2023/07/18 03:41:20;;;;;;;;;;;26.50;80.80;;;;;;5113839;28;20357;-65
2023/07/18 03:43:47;;;;;;;;;;;27.90;77.00;;;;;;5113501;28;19924;-64
2023/07/18 03:46:14;;;;;;;;;;;29.20;71.90;;;;;;5118002;27;19996;-64
2023/07/18 03:48:40;;;;;;;;;;;30.60;68.40;;;;;;5123494;27;20320;-67
2023/07/18 03:51:08;;;;;;;;;;;31.50;67.20;;;;;;5104217;27;19908;-68
2023/07/18 03:53:34;;;;;;;;;;;32.50;64.70;;;;;;5113758;28;19911;-67
2023/07/18 03:56:05;;;;;;;;;;;32.20;64.00;;;;;;5113621;28;20352;-69
2023/07/18 03:58:32;;;;;;;;;;;32.70;62.30;;;;;;5113791;28;19966;-63
2023/07/18 04:00:59;;;;;;;;;;;33.20;60.30;;;;;;5099836;28;19930;-67
2023/07/18 04:03:25;;;;;;;;;;;32.70;61.20;;;;;;5093584;28;19908;-66
2023/07/18 04:05:52;;;;;;;;;;;32.70;60.70;;;;;;5105101;28;19931;-65
2023/07/18 04:08:18;;;;;;;;;;;32.60;61.20;;;;;;5110565;28;19928;-66
2023/07/18 04:10:45;;;;;;;;;;;32.30;61.60;;;;;;5113324;28;20330;-66
2023/07/18 04:13:12;;;;;;;;;;;32.60;61.20;;;;;;5113306;28;19908;-67
2023/07/18 04:15:38;;;;;;;;;;;32.80;58.70;;;;;;5112469;28;19985;-65
2023/07/18 04:18:05;;;;;;;;;;;32.30;59.40;;;;;;5111946;28;19960;-67
2023/07/18 04:20:32;;;;;;;;;;;32.10;60.00;;;;;;5100508;28;19912;-66
2023/07/18 04:22:58;;;;;;;;;;;31.40;59.70;;;;;;5107337;28;20388;-66
2023/07/18 04:25:30;;;;;;;;;;;30.40;61.10;;;;;;5093161;28;20312;-67
2023/07/18 04:27:56;;;;;;;;;;;28.90;64.00;;;;;;5092925;28;19916;-67
2023/07/18 04:30:23;;;;;;;;;;;27.40;64.50;;;;;;5095950;28;19907;-67
2023/07/18 04:32:49;;;;;;;;;;;26.30;65.90;;;;;;5111945;28;19912;-66
2023/07/18 04:35:16;;;;;;;;;;;25.30;67.50;;;;;;5112457;28;20487;-68
2023/07/18 04:37:43;;;;;;;;;;;24.50;69.90;;;;;;5112239;28;19907;-68
2023/07/18 04:40:10;;;;;;;;;;;24.00;69.90;;;;;;5112002;28;19953;-67
2023/07/18 04:42:37;;;;;;;;;;;23.60;70.80;;;;;;5112618;28;19916;-65
2023/07/18 04:45:06;;;;;;;;;;;23.40;71.10;;;;;;5112891;28;19907;-65
2023/07/18 04:47:32;;;;;;;;;;;23.00;71.10;;;;;;5111331;28;20512;-67
2023/07/18 04:49:59;;;;;;;;;;;22.80;72.70;;;;;;5112235;28;20233;-65
2023/07/18 04:52:26;;;;;;;;;;;22.70;72.30;;;;;;5112377;28;19908;-66
2023/07/18 04:54:53;;;;;;;;;;;22.50;71.90;;;;;;5111323;28;20006;-67
2023/07/18 04:57:21;;;;;;;;;;;22.30;71.40;;;;;;5112159;28;20279;-67
2023/07/18 04:59:47;;;;;;;;;;;22.20;71.90;;;;;;5108681;28;19973;-66
2023/07/18 05:02:14;;;;;;;;;;;22.30;72.80;;;;;;5103448;28;19992;-66
2023/07/18 05:04:40;;;;;;;;;;;22.30;73.80;;;;;;5090110;28;19919;-66
2023/07/18 05:07:08;;;;;;;;;;;22.30;73.30;;;;;;5089691;28;19919;-68
2023/07/18 05:09:35;;;;;;;;;;;22.30;72.70;;;;;;5106007;28;19911;-67
2023/07/18 05:12:02;;;;;;;;;;;22.30;72.70;;;;;;5111035;28;20280;-67
2023/07/18 05:14:28;;;;;;;;;;;22.30;70.10;;;;;;5111662;28;19919;-65
2023/07/18 05:16:55;;;;;;;;;;;22.60;70.60;;;;;;5112742;28;19965;-67
2023/07/18 05:19:22;;;;;;;;;;;23.00;70.20;;;;;;5101510;28;19908;-66
2023/07/18 05:21:50;;;;;;;;;;;23.40;70.00;;;;;;5111078;28;20269;-67
2023/07/18 05:24:16;;;;;;;;;;;23.80;68.60;;;;;;5110942;28;19997;-67
2023/07/18 05:26:43;;;;;;;;;;;23.90;68.00;;;;;;5111719;28;19969;-67
2023/07/18 05:29:10;;;;;;;;;;;23.90;68.70;;;;;;5109306;28;19957;-67
2023/07/18 05:31:36;;;;;;;;;;;23.70;68.20;;;;;;5111331;28;19920;-66
2023/07/18 05:34:03;;;;;;;;;;;23.70;66.30;;;;;;5108070;28;20378;-67
2023/07/18 05:36:30;;;;;;;;;;;23.60;64.50;;;;;;5102492;28;19999;-66
2023/07/18 05:38:56;;;;;;;;;;;23.40;62.90;;;;;;5101906;28;19912;-66
2023/07/18 05:41:23;;;;;;;;;;;22.90;59.30;;;;;;5108364;28;19912;-65
2023/07/18 05:43:51;;;;;;;;;;;22.60;60.70;;;;;;5109995;28;19919;-65
2023/07/18 05:46:18;;;;;;;;;;;22.40;58.60;;;;;;5110414;28;19960;-65
2023/07/18 05:48:44;;;;;;;;;;;22.50;59.50;;;;;;5107322;28;19912;-65
2023/07/18 05:51:11;;;;;;;;;;;22.80;60.30;;;;;;5109488;28;19911;-65
2023/07/18 05:53:37;;;;;;;;;;;22.90;58.70;;;;;;5098977;28;20244;-64
2023/07/18 05:56:04;;;;;;;;;;;23.00;58.20;;;;;;5108671;28;19931;-65
2023/07/18 05:58:31;;;;;;;;;;;23.20;58.90;;;;;;5100815;28;19908;-67
2023/07/18 06:00:57;;;;;;;;;;;23.40;58.40;;;;;;5114694;27;19916;-67
2023/07/18 06:03:24;;;;;;;;;;;23.80;58.10;;;;;;5115100;28;20318;-66
2023/07/18 06:05:54;;;;;;;;;;;24.20;59.30;;;;;;5124652;27;19956;-66
2023/07/18 06:08:23;;;;;;;;;;;24.80;60.90;;;;;;5116675;27;20040;-66
2023/07/18 06:10:56;;;;;;;;;;;25.40;61.40;;;;;;5108850;28;20006;-68
2023/07/18 06:13:23;;;;;;;;;;;25.90;61.30;;;;;;5114515;28;20438;-65
2023/07/18 06:15:51;;;;;;;;;;;25.80;61.20;;;;;;5124130;27;20279;-67
2023/07/18 06:18:18;;;;;;;;;;;25.20;61.20;;;;;;5133290;27;19938;-66
2023/07/18 06:20:45;;;;;;;;;;;24.50;61.90;;;;;;5109606;27;20420;-65
2023/07/18 06:23:11;;;;;;;;;;;24.00;63.00;;;;;;5094508;28;20571;-68
2023/07/18 06:25:38;;;;;;;;;;;23.60;63.70;;;;;;5100682;27;19919;-67
2023/07/18 06:28:05;;;;;;;;;;;23.20;64.30;;;;;;5114431;28;19916;-67
2023/07/18 06:30:31;;;;;;;;;;;22.80;64.60;;;;;;5106678;27;20284;-67
2023/07/18 06:32:59;;;;;;;;;;;22.40;64.90;;;;;;5095873;28;19927;-67
2023/07/18 06:35:25;;;;;;;;;;;22.00;65.70;;;;;;5097547;27;19919;-68
2023/07/18 06:37:52;;;;;;;;;;;21.60;66.40;;;;;;5114222;28;20361;-66
2023/07/18 06:40:19;;;;;;;;;;;21.30;66.90;;;;;;5110330;28;20015;-67
2023/07/18 06:42:45;;;;;;;;;;;21.10;67.20;;;;;;5097234;28;19921;-66
2023/07/18 06:45:14;;;;;;;;;;;20.90;67.30;;;;;;5095817;28;19944;-66
2023/07/18 06:47:41;;;;;;;;;;;20.80;67.70;;;;;;5114052;28;19977;-66
2023/07/18 06:50:07;;;;;;;;;;;20.60;67.50;;;;;;5096252;27;19912;-67
2023/07/18 06:52:34;;;;;;;;;;;20.40;66.80;;;;;;5098312;28;19950;-67
2023/07/18 06:55:00;;;;;;;;;;;20.40;67.40;;;;;;5093423;28;20393;-66
2023/07/18 06:57:27;;;;;;;;;;;20.30;67.70;;;;;;5113619;27;19908;-67
2023/07/18 06:59:54;;;;;;;;;;;20.10;68.10;;;;;;5109647;28;19908;-67
2023/07/18 07:02:20;;;;;;;;;;;20.10;68.20;;;;;;5108629;27;20016;-65
2023/07/18 07:04:48;;;;;;;;;;;19.90;68.60;;;;;;5094007;28;19955;-67
2023/07/18 07:07:14;;;;;;;;;;;19.80;68.60;;;;;;5111427;28;19954;-67
2023/07/18 07:09:41;;;;;;;;;;;19.70;68.90;;;;;;5109436;28;19920;-63
2023/07/18 07:12:08;;;;;;;;;;;19.60;69.30;;;;;;5111562;28;19919;-64
2023/07/18 07:14:35;;;;;;;;;;;19.50;70.90;;;;;;5114056;28;20303;-66
2023/07/18 07:17:02;;;;;;;;;;;19.40;71.10;;;;;;5103628;28;19912;-68
2023/07/18 07:19:28;;;;;;;;;;;19.30;71.00;;;;;;5108116;28;19912;-67
2023/07/18 07:21:55;;;;;;;;;;;19.20;71.80;;;;;;5107463;28;20464;-66
2023/07/18 07:24:22;;;;;;;;;;;19.10;72.90;;;;;;5112590;28;19941;-68
2023/07/18 07:26:48;;;;;;;;;;;19.00;72.40;;;;;;5112543;28;19924;-66
2023/07/18 07:29:15;;;;;;;;;;;18.90;73.00;;;;;;5112087;28;19912;-67
2023/07/18 07:31:42;;;;;;;;;;;18.90;73.80;;;;;;5086159;28;19995;-67
2023/07/18 07:34:09;;;;;;;;;;;18.80;75.30;;;;;;5108367;28;19912;-67
2023/07/18 07:36:35;;;;;;;;;;;18.70;75.80;;;;;;5107671;27;19965;-68
2023/07/18 07:39:03;;;;;;;;;;;18.60;76.60;;;;;;5093222;28;20035;-67
2023/07/18 07:41:29;;;;;;;;;;;18.50;77.10;;;;;;5101818;28;19969;-67
2023/07/18 07:43:56;;;;;;;;;;;18.30;78.10;;;;;;5111471;28;19927;-66
2023/07/18 07:46:23;;;;;;;;;;;18.20;79.00;;;;;;5110201;28;19912;-67
2023/07/18 07:48:50;;;;;;;;;;;18.10;80.00;;;;;;5106477;28;20306;-67
2023/07/18 07:51:16;;;;;;;;;;;18.00;81.10;;;;;;5103602;28;19918;-68
2023/07/18 07:53:43;;;;;;;;;;;17.80;82.20;;;;;;5111613;28;19954;-67
2023/07/18 07:56:10;;;;;;;;;;;17.70;83.20;;;;;;5108488;28;19912;-67
2023/07/18 07:58:39;;;;;;;;;;;17.50;83.70;;;;;;5093261;28;19996;-66
2023/07/18 08:01:06;;;;;;;;;;;17.40;84.50;;;;;;5097842;28;19935;-65
2023/07/18 08:03:33;;;;;;;;;;;17.20;85.00;;;;;;5113713;28;19911;-66
2023/07/18 08:06:00;;;;;;;;;;;17.10;84.90;;;;;;5113294;28;19994;-67
2023/07/18 08:08:27;;;;;;;;;;;16.90;85.50;;;;;;5093263;28;20376;-65
2023/07/18 08:10:53;;;;;;;;;;;16.80;85.90;;;;;;5095397;28;19908;-67
2023/07/18 08:13:20;;;;;;;;;;;16.70;85.40;;;;;;5112403;28;20369;-67
2023/07/18 08:15:46;;;;;;;;;;;16.60;87.00;;;;;;5113781;27;20006;-65
2023/07/18 08:18:13;;;;;;;;;;;16.60;88.00;;;;;;5094591;28;19966;-66
2023/07/18 08:20:40;;;;;;;;;;;16.50;88.70;;;;;;5092544;28;19920;-65
2023/07/18 08:23:07;;;;;;;;;;;16.30;88.80;;;;;;5092410;28;19915;-66
2023/07/18 08:25:33;;;;;;;;;;;16.30;89.80;;;;;;5093242;28;20313;-66
2023/07/18 08:28:00;;;;;;;;;;;16.20;89.90;;;;;;5109021;28;20252;-67
2023/07/18 08:30:27;;;;;;;;;;;16.10;88.50;;;;;;5113912;28;20312;-66
2023/07/18 08:32:53;;;;;;;;;;;16.00;88.80;;;;;;5105178;28;19998;-67
2023/07/18 08:35:20;;;;;;;;;;;16.00;88.60;;;;;;5111917;28;19918;-67
2023/07/18 08:37:48;;;;;;;;;;;15.90;88.80;;;;;;5112795;28;19997;-69
2023/07/18 08:40:14;;;;;;;;;;;15.90;89.10;;;;;;5113368;28;19911;-68
2023/07/18 08:42:42;;;;;;;;;;;15.80;89.20;;;;;;5113245;28;19915;-66
2023/07/18 08:45:13;;;;;;;;;;;15.80;89.20;;;;;;5111302;28;19918;-67
2023/07/18 08:47:41;;;;;;;;;;;15.80;89.00;;;;;;5109425;28;19927;-66
2023/07/18 08:50:10;;;;;;;;;;;15.80;89.20;;;;;;5112667;28;19907;-67
2023/07/18 08:52:37;;;;;;;;;;;15.80;89.00;;;;;;5103654;28;20280;-67
2023/07/18 08:55:04;;;;;;;;;;;15.70;87.80;;;;;;5113192;28;20387;-67
2023/07/18 08:57:32;;;;;;;;;;;15.70;86.70;;;;;;5112963;28;20364;-66
2023/07/18 09:00:06;;;;;;;;;;;15.70;84.30;;;;;;5108123;27;20338;-65
2023/07/18 09:02:34;;;;;;;;;;;15.60;84.90;;;;;;5111050;28;19912;-65
2023/07/18 09:05:01;;;;;;;;;;;15.70;86.00;;;;;;5112556;27;20372;-68
2023/07/18 09:07:28;;;;;;;;;;;15.60;85.20;;;;;;5100144;28;19922;-63
2023/07/18 09:09:57;;;;;;;;;;;15.60;85.00;;;;;;5104601;28;19934;-67
2023/07/18 09:12:24;;;;;;;;;;;15.60;85.50;;;;;;5096918;28;20014;-67
2023/07/18 09:14:55;;;;;;;;;;;15.50;85.20;;;;;;5101568;28;19919;-66
2023/07/18 09:17:22;;;;;;;;;;;15.50;85.30;;;;;;5111947;28;19935;-67
2023/07/18 09:19:50;;;;;;;;;;;15.50;83.90;;;;;;5110848;27;19916;-65
2023/07/18 09:22:21;;;;;;;;;;;15.50;82.30;;;;;;5111575;28;19907;-65
2023/07/18 09:24:48;;;;;;;;;;;15.50;82.50;;;;;;5094055;28;19956;-67
2023/07/18 09:27:15;;;;;;;;;;;15.50;82.20;;;;;;5101434;28;19923;-68
2023/07/18 09:29:45;;;;;;;;;;;15.50;81.40;;;;;;5110144;27;19912;-65
2023/07/18 09:32:19;;;;;;;;;;;15.50;79.10;;;;;;5101394;28;20284;-66
2023/07/18 09:34:52;;;;;;;;;;;15.60;80.20;;;;;;5102727;28;19911;-67
2023/07/18 09:37:19;;;;;;;;;;;15.50;79.50;;;;;;5103628;28;20010;-66
2023/07/18 09:39:46;;;;;;;;;;;15.50;79.60;;;;;;5109331;28;19954;-67
2023/07/18 09:42:13;;;;;;;;;;;15.50;78.30;;;;;;5111019;28;19922;-66
2023/07/18 09:44:40;;;;;;;;;;;15.60;78.10;;;;;;5101315;28;20023;-67
2023/07/18 09:47:07;;;;;;;;;;;15.60;77.80;;;;;;5102237;28;19916;-65
2023/07/18 09:49:34;;;;;;;;;;;15.60;78.70;;;;;;5081053;28;19912;-66
2023/07/18 09:52:04;;;;;;;;;;;15.60;78.80;;;;;;5112474;28;20368;-66
2023/07/18 09:54:32;;;;;;;;;;;15.60;79.20;;;;;;5099088;28;19916;-63
2023/07/18 09:57:02;;;;;;;;;;;15.50;78.10;;;;;;5102909;28;20373;-65
2023/07/18 09:59:32;;;;;;;;;;;15.50;79.20;;;;;;5101041;28;19959;-62
2023/07/18 10:02:04;;;;;;;;;;;15.40;78.60;;;;;;5111864;28;20379;-65
2023/07/18 10:04:32;;;;;;;;;;;15.40;80.80;;;;;;5093510;28;19919;-63
2023/07/18 10:06:59;;;;;;;;;;;15.30;81.10;;;;;;5085543;28;19967;-64
2023/07/18 10:09:27;;;;;;;;;;;15.30;80.10;;;;;;5096929;28;19916;-62
2023/07/18 10:12:00;;;;;;;;;;;15.20;81.30;;;;;;5109044;28;20427;-67
2023/07/18 10:14:30;;;;;;;;;;;15.20;79.60;;;;;;5090898;28;19915;-69
2023/07/18 10:17:05;;;;;;;;;;;15.10;78.50;;;;;;5094401;28;19916;-67
2023/07/18 10:19:45;;;;;;;;;;;15.10;80.30;;;;;;5111989;28;19907;-68
2023/07/18 10:22:12;;;;;;;;;;;15.10;81.90;;;;;;5099027;28;19913;-65
2023/07/18 10:24:49;;;;;;;;;;;14.90;83.80;;;;;;5091787;28;19916;-66
2023/07/18 10:27:15;;;;;;;;;;;14.90;84.80;;;;;;5091651;28;19916;-66
2023/07/18 10:30:03;;;;;;;;;;;14.70;84.60;;;;;;5091822;28;20372;-66
2023/07/18 10:32:31;;;;;;;;;;;14.70;83.20;;;;;;5091763;28;19909;-67
2023/07/18 10:34:59;;;;;;;;;;;14.60;84.20;;;;;;5092094;28;20361;-67
2023/07/18 10:37:26;;;;;;;;;;;14.50;84.20;;;;;;5100578;28;20372;-68
2023/07/18 10:39:54;;;;;;;;;;;14.50;84.50;;;;;;5102989;28;20207;-67
2023/07/18 10:42:23;;;;;;;;;;;14.50;86.20;;;;;;5109349;28;19932;-67
2023/07/18 10:44:57;;;;;;;;;;;14.30;85.40;;;;;;5112422;28;19937;-67
2023/07/18 10:47:23;;;;;;;;;;;14.40;86.00;;;;;;5115867;28;20006;-66
2023/07/18 10:49:50;;;;;;;;;;;14.30;86.50;;;;;;5114954;28;19911;-67
2023/07/18 10:52:17;;;;;;;;;;;14.30;85.60;;;;;;5115184;28;20368;-67
2023/07/18 10:54:54;;;;;;;;;;;14.20;85.50;;;;;;5115519;28;20392;-65
2023/07/18 10:57:28;;;;;;;;;;;14.20;84.10;;;;;;5110358;28;19908;-67
2023/07/18 10:59:57;;;;;;;;;;;14.40;84.20;;;;;;5114933;28;19939;-65
2023/07/18 11:02:25;;;;;;;;;;;14.40;84.90;;;;;;5114179;28;19904;-65
2023/07/18 11:04:52;;;;;;;;;;;14.30;85.50;;;;;;5115208;28;19999;-65
2023/07/18 11:07:18;;;;;;;;;;;14.40;85.10;;;;;;5098885;28;20269;-66
2023/07/18 11:09:45;;;;;;;;;;;14.30;86.70;;;;;;5094626;28;20342;-66
2023/07/18 11:12:18;;;;;;;;;;;14.30;87.20;;;;;;5095469;28;19923;-65
2023/07/18 11:14:46;;;;;;;;;;;14.30;87.30;;;;;;5109550;28;19951;-67
2023/07/18 11:17:14;;;;;;;;;;;14.20;87.50;;;;;;5112711;28;19973;-68
2023/07/18 11:19:40;;;;;;;;;;;14.10;88.10;;;;;;5113663;27;20286;-67
2023/07/18 11:22:08;;;;;;;;;;;14.10;88.40;;;;;;5112591;28;20002;-66
2023/07/18 11:24:35;;;;;;;;;;;14.10;88.10;;;;;;5119434;27;19911;-66
2023/07/18 11:27:34;;;;;;;;;;;14.10;85.80;;;;;;5116932;27;20367;-67
2023/07/18 11:30:01;;;;;;;;;;;14.10;84.90;;;;;;5105911;27;19920;-64
2023/07/18 11:32:31;;;;;;;;;;;14.10;84.30;;;;;;5113849;27;19911;-66
2023/07/18 11:34:59;;;;;;;;;;;14.20;84.00;;;;;;5120354;27;19915;-65
2023/07/18 11:37:26;;;;;;;;;;;14.20;83.90;;;;;;5112765;27;19958;-65
2023/07/18 11:39:57;;;;;;;;;;;14.30;83.80;;;;;;5114655;28;19911;-66
2023/07/18 11:42:25;;;;;;;;;;;14.20;84.30;;;;;;5107753;28;19919;-65
2023/07/18 11:44:55;;;;;;;;;;;14.10;84.20;;;;;;5094823;28;19955;-66
2023/07/18 11:47:21;;;;;;;;;;;14.20;84.20;;;;;;5096491;28;19918;-67
2023/07/18 11:49:48;;;;;;;;;;;14.10;83.30;;;;;;5094076;28;19962;-63
2023/07/18 11:52:18;;;;;;;;;;;14.10;84.70;;;;;;5109029;28;19951;-67
2023/07/18 11:54:46;;;;;;;;;;;14.10;85.30;;;;;;5114558;28;20007;-65
2023/07/18 11:57:12;;;;;;;;;;;14.20;85.70;;;;;;5113138;28;19991;-63
2023/07/18 11:59:39;;;;;;;;;;;14.20;86.20;;;;;;5113357;28;20276;-67
2023/07/18 12:02:06;;;;;;;;;;;14.20;86.50;;;;;;5093821;28;20271;-64
2023/07/18 12:04:32;;;;;;;;;;;14.20;85.90;;;;;;5093569;28;20372;-66
2023/07/18 12:06:59;;;;;;;;;;;14.20;85.20;;;;;;5093538;28;20273;-63
2023/07/18 12:09:26;;;;;;;;;;;14.30;84.00;;;;;;5093568;28;19912;-65
2023/07/18 12:11:54;;;;;;;;;;;14.40;83.80;;;;;;5093334;28;19908;-64
2023/07/18 12:14:20;;;;;;;;;;;14.40;83.90;;;;;;5093749;28;20284;-66
2023/07/18 12:16:47;;;;;;;;;;;14.40;83.00;;;;;;5093517;28;19915;-68
2023/07/18 12:19:13;;;;;;;;;;;14.40;83.30;;;;;;5093408;28;19908;-67
2023/07/18 12:21:40;;;;;;;;;;;14.50;83.40;;;;;;5093606;28;20357;-64
2023/07/18 12:24:07;;;;;;;;;;;14.50;83.10;;;;;;5093742;28;19973;-66
2023/07/18 12:26:34;;;;;;;;;;;14.50;83.20;;;;;;5113792;28;19915;-66
2023/07/18 12:29:00;;;;;;;;;;;14.50;83.50;;;;;;5114232;28;19912;-67
2023/07/18 12:31:27;;;;;;;;;;;14.40;83.70;;;;;;5114030;28;19915;-66
2023/07/18 12:33:54;;;;;;;;;;;14.40;84.00;;;;;;5114098;28;19915;-66
2023/07/18 12:36:20;;;;;;;;;;;14.40;84.60;;;;;;5113393;28;19908;-67
2023/07/18 12:38:48;;;;;;;;;;;14.30;85.40;;;;;;5095287;28;19939;-66
2023/07/18 12:41:14;;;;;;;;;;;14.20;86.90;;;;;;5097915;28;19911;-65
2023/07/18 12:43:41;;;;;;;;;;;14.20;87.80;;;;;;5093201;28;19941;-67
2023/07/18 12:46:08;;;;;;;;;;;14.10;88.20;;;;;;5093161;28;19914;-67
2023/07/18 12:48:34;;;;;;;;;;;14.10;88.90;;;;;;5093305;28;19916;-65
2023/07/18 12:51:04;;;;;;;;;;;14.00;89.40;;;;;;5093174;28;19908;-66
2023/07/18 12:53:30;;;;;;;;;;;14.00;89.90;;;;;;5093449;28;19908;-65
2023/07/18 12:55:57;;;;;;;;;;;13.90;90.30;;;;;;5093305;28;19914;-68
2023/07/18 12:58:23;;;;;;;;;;;13.90;90.70;;;;;;5092740;28;20015;-66
2023/07/18 13:00:50;;;;;;;;;;;13.80;90.80;;;;;;5093133;28;19995;-68
2023/07/18 13:03:17;;;;;;;;;;;13.70;90.90;;;;;;5093116;28;19915;-66
2023/07/18 13:05:43;;;;;;;;;;;13.70;91.10;;;;;;5093138;28;19958;-67
2023/07/18 13:08:10;;;;;;;;;;;13.60;91.50;;;;;;5092429;28;19920;-65
2023/07/18 13:10:37;;;;;;;;;;;13.50;91.80;;;;;;5112869;28;20372;-67
2023/07/18 13:13:04;;;;;;;;;;;13.40;92.10;;;;;;5112766;28;19914;-66
2023/07/18 13:15:30;;;;;;;;;;;13.30;92.20;;;;;;5113277;28;20370;-65
2023/07/18 13:17:57;;;;;;;;;;;13.20;92.50;;;;;;5113089;28;19950;-64
2023/07/18 13:20:24;;;;;;;;;;;13.20;93.00;;;;;;5113014;28;19950;-65
2023/07/18 13:22:50;;;;;;;;;;;13.20;93.20;;;;;;5113101;28;19950;-64
2023/07/18 13:25:17;;;;;;;;;;;13.10;93.20;;;;;;5113168;28;19915;-65
2023/07/18 13:27:43;;;;;;;;;;;13.00;93.10;;;;;;5113922;28;19923;-67
2023/07/18 13:30:10;;;;;;;;;;;12.90;93.10;;;;;;5113139;28;19955;-67
2023/07/18 13:32:37;;;;;;;;;;;12.90;93.50;;;;;;5112796;28;19914;-64
2023/07/18 13:35:04;;;;;;;;;;;12.90;93.70;;;;;;5111095;28;19908;-68
2023/07/18 13:37:31;;;;;;;;;;;12.80;94.10;;;;;;5108895;28;19912;-68
2023/07/18 13:39:57;;;;;;;;;;;12.70;94.30;;;;;;5111137;28;20011;-68
2023/07/18 13:42:24;;;;;;;;;;;12.80;94.60;;;;;;5112487;28;20221;-67
2023/07/18 13:44:54;;;;;;;;;;;12.70;94.90;;;;;;5112776;28;19912;-66
2023/07/18 13:47:21;;;;;;;;;;;12.60;95.30;;;;;;5112117;28;19967;-68
2023/07/18 13:49:47;;;;;;;;;;;12.60;95.70;;;;;;5112537;28;19912;-67
2023/07/18 13:52:14;;;;;;;;;;;12.60;96.00;;;;;;5112248;28;20371;-66
2023/07/18 13:54:40;;;;;;;;;;;12.40;96.40;;;;;;5112307;28;19927;-67
2023/07/18 13:57:07;;;;;;;;;;;12.50;96.70;;;;;;5112185;28;19911;-68
2023/07/18 13:59:34;;;;;;;;;;;12.40;97.10;;;;;;5111672;28;19911;-64
2023/07/18 14:02:00;;;;;;;;;;;12.40;97.20;;;;;;5112055;28;19923;-63
2023/07/18 14:04:27;;;;;;;;;;;12.40;97.50;;;;;;5112461;28;20406;-63
2023/07/18 14:06:54;;;;;;;;;;;12.30;97.70;;;;;;5112601;28;19908;-63
2023/07/18 14:09:21;;;;;;;;;;;12.40;97.90;;;;;;5112160;28;19912;-64
2023/07/18 14:11:48;;;;;;;;;;;12.30;98.30;;;;;;5112073;28;19915;-64
2023/07/18 14:14:14;;;;;;;;;;;12.20;98.80;;;;;;5111874;28;19939;-68
2023/07/18 14:16:41;;;;;;;;;;;12.20;98.80;;;;;;5112218;28;19915;-67